Time;durP1;ratioP1;P1;durP2;ratioP2;P2;SDS_P1;SDS_P2;PMS_P1;PMS_P2;Temp;Humidity;BMP_temperature;BMP_pressure;BME280_temperature;BME280_humidity;BME280_pressure;Samples;Min_cycle;Max_cycle;Signal;HPM_P1;HPM_P2
2023/09/30 00:01:47;;;;;;;10.27;4.27;;;13.80;99.90;;;;;;5099911;28;20647;-64
2023/09/30 00:04:13;;;;;;;8.20;3.87;;;13.90;99.90;;;;;;5038084;28;20712;-63
2023/09/30 00:07:05;;;;;;;8.57;4.63;;;13.90;99.90;;;;;;5047828;28;20429;-64
2023/09/30 00:09:31;;;;;;;7.07;4.80;;;13.90;99.90;;;;;;5095397;28;20184;-62
2023/09/30 00:11:59;;;;;;;6.43;3.80;;;13.90;99.90;;;;;;5098021;28;20761;-63
2023/09/30 00:14:32;;;;;;;8.67;3.60;;;13.90;99.90;;;;;;5095803;28;21273;-63
2023/09/30 00:16:57;;;;;;;9.80;4.83;;;14.10;99.90;;;;;;5098119;28;20417;-63
2023/09/30 00:19:32;;;;;;;10.63;4.00;;;14.00;99.90;;;;;;5098905;28;20424;-64
2023/09/30 00:22:01;;;;;;;9.57;4.40;;;14.00;99.90;;;;;;5093359;28;20791;-64
2023/09/30 00:24:39;;;;;;;7.33;4.37;;;13.90;99.90;;;;;;5094045;28;20474;-63
2023/09/30 00:27:04;;;;;;;9.80;4.97;;;13.80;99.90;;;;;;5103058;28;20502;-63
2023/09/30 00:29:30;;;;;;;8.53;4.57;;;13.70;99.90;;;;;;5093163;28;21148;-63
2023/09/30 00:32:02;;;;;;;10.27;5.10;;;13.80;99.90;;;;;;5093063;28;20268;-63
2023/09/30 00:34:35;;;;;;;9.87;4.70;;;13.80;99.90;;;;;;5098397;28;20191;-63
2023/09/30 00:37:40;;;;;;;11.37;4.80;;;14.00;99.90;;;;;;5078743;28;20418;-63
2023/09/30 00:40:35;;;;;;;10.07;4.80;;;14.00;99.90;;;;;;5081243;28;20456;-63
2023/09/30 00:43:23;;;;;;;8.17;4.50;;;14.10;99.90;;;;;;5093589;28;20502;-64
2023/09/30 00:46:23;;;;;;;6.73;3.60;;;14.10;99.90;;;;;;5000238;28;21346;-63
2023/09/30 00:49:02;;;;;;;10.40;4.53;;;14.20;99.90;;;;;;4974514;28;20477;-65
2023/09/30 00:51:28;;;;;;;7.17;4.17;;;14.20;99.90;;;;;;5084615;28;20570;-65
2023/09/30 00:54:06;;;;;;;8.67;4.90;;;14.10;99.90;;;;;;5097577;28;20425;-65
2023/09/30 00:56:32;;;;;;;7.23;4.00;;;14.10;99.90;;;;;;5093645;28;20429;-65
2023/09/30 00:59:04;;;;;;;11.17;4.67;;;14.10;99.90;;;;;;5081308;28;20425;-65
2023/09/30 01:01:33;;;;;;;7.53;4.57;;;14.10;99.90;;;;;;5095100;28;21004;-64
2023/09/30 01:04:00;;;;;;;7.07;3.50;;;14.00;99.90;;;;;;5096716;28;20797;-64
2023/09/30 01:06:32;;;;;;;10.07;4.23;;;14.00;99.90;;;;;;5095606;28;20449;-64
2023/09/30 01:09:09;;;;;;;12.00;3.93;;;13.90;99.90;;;;;;5100987;28;20797;-64
2023/09/30 01:12:17;;;;;;;6.90;3.47;;;13.80;99.90;;;;;;5103000;28;20499;-64
2023/09/30 01:14:43;;;;;;;10.57;4.53;;;13.70;99.90;;;;;;5095659;28;20426;-64
2023/09/30 01:17:24;;;;;;;8.80;4.00;;;13.60;99.90;;;;;;5095768;28;20455;-64
2023/09/30 01:19:53;;;;;;;6.83;4.10;;;13.60;99.90;;;;;;5097845;28;20183;-64
2023/09/30 01:22:18;;;;;;;10.60;4.77;;;13.70;99.90;;;;;;5094838;28;20430;-64
2023/09/30 01:24:47;;;;;;;10.73;4.57;;;13.80;99.90;;;;;;5090727;28;20425;-64
2023/09/30 01:27:19;;;;;;;10.30;4.37;;;13.90;99.90;;;;;;5087154;28;20212;-64
2023/09/30 01:29:45;;;;;;;10.90;4.50;;;14.00;99.90;;;;;;5073835;28;20418;-64
2023/09/30 01:32:17;;;;;;;11.27;4.90;;;13.90;99.90;;;;;;5083506;28;20434;-64
2023/09/30 01:34:48;;;;;;;7.77;3.73;;;13.90;99.90;;;;;;5096888;28;20219;-64
2023/09/30 01:37:17;;;;;;;7.47;4.70;;;13.80;99.90;;;;;;5095265;28;20429;-64
2023/09/30 01:39:45;;;;;;;10.80;4.13;;;13.70;99.90;;;;;;5092833;28;20422;-64
2023/09/30 01:42:43;;;;;;;7.10;4.03;;;13.60;99.90;;;;;;5093040;28;20423;-64
2023/09/30 01:45:10;;;;;;;7.93;4.20;;;13.70;99.90;;;;;;5075052;28;20433;-64
2023/09/30 01:47:36;;;;;;;9.63;3.90;;;13.60;99.90;;;;;;5100647;28;20477;-64
2023/09/30 01:50:01;;;;;;;9.40;3.67;;;13.50;99.90;;;;;;5101912;28;21136;-64
2023/09/30 01:52:33;;;;;;;5.43;3.60;;;13.50;99.90;;;;;;5102251;28;20241;-64
2023/09/30 01:55:02;;;;;;;10.87;5.40;;;13.50;99.90;;;;;;5102637;28;20184;-64
2023/09/30 01:57:28;;;;;;;6.00;3.40;;;13.50;99.90;;;;;;5093781;28;20433;-64
2023/09/30 02:00:22;;;;;;;17.37;4.90;;;13.60;99.90;;;;;;5096064;28;20418;-64
2023/09/30 02:02:48;;;;;;;9.07;4.13;;;13.70;99.90;;;;;;5100184;28;20179;-64
2023/09/30 02:05:16;;;;;;;8.97;3.63;;;13.70;99.90;;;;;;5099520;28;20483;-64
2023/09/30 02:07:45;;;;;;;6.47;4.13;;;13.80;99.90;;;;;;5100097;28;20208;-64
2023/09/30 02:10:10;;;;;;;9.57;4.33;;;13.80;99.90;;;;;;5103746;28;21096;-64
2023/09/30 02:12:37;;;;;;;8.00;4.03;;;13.70;99.90;;;;;;5106188;28;20445;-64
2023/09/30 02:15:35;;;;;;;5.13;3.43;;;13.70;99.90;;;;;;5099240;28;20436;-64
2023/09/30 02:21:22;;;;;;;11.37;5.07;;;13.50;99.90;;;;;;5021570;28;20437;-64
2023/09/30 02:23:54;;;;;;;6.60;4.33;;;13.60;99.90;;;;;;5023079;28;20444;-65
2023/09/30 02:26:29;;;;;;;7.80;5.47;;;13.60;99.90;;;;;;5022167;28;20496;-65
2023/09/30 02:29:26;;;;;;;11.70;8.50;;;13.70;99.90;;;;;;5022473;28;20526;-64
2023/09/30 02:31:52;;;;;;;14.43;12.23;;;13.70;99.90;;;;;;5022369;28;20417;-64
2023/09/30 02:34:50;;;;;;;17.13;14.20;;;13.60;99.90;;;;;;5021857;28;20434;-64
2023/09/30 02:37:25;;;;;;;22.43;14.30;;;13.60;99.90;;;;;;5045689;28;21091;-64
2023/09/30 02:40:26;;;;;;;19.10;14.00;;;13.60;99.90;;;;;;5095493;28;20425;-64
2023/09/30 02:42:58;;;;;;;18.53;14.20;;;13.60;99.90;;;;;;5060884;28;20442;-64
2023/09/30 02:45:39;;;;;;;19.97;13.10;;;13.60;99.90;;;;;;5104781;28;20421;-65
2023/09/30 02:48:06;;;;;;;16.17;12.70;;;13.60;99.90;;;;;;5091618;28;20470;-64
2023/09/30 02:51:29;;;;;;;17.43;10.83;;;13.60;99.90;;;;;;5103474;28;20449;-64
2023/09/30 02:53:58;;;;;;;16.43;9.87;;;13.50;99.90;;;;;;5095310;28;20418;-64
2023/09/30 02:56:24;;;;;;;16.63;10.13;;;13.40;99.90;;;;;;5096198;28;20426;-64
2023/09/30 02:58:51;;;;;;;13.20;9.77;;;13.30;99.90;;;;;;5100186;28;20432;-64
2023/09/30 03:01:20;;;;;;;14.13;9.07;;;13.30;99.90;;;;;;5091044;28;20858;-64
2023/09/30 03:03:56;;;;;;;11.97;8.30;;;13.20;99.90;;;;;;5098533;28;21068;-65
2023/09/30 03:06:36;;;;;;;9.50;7.00;;;13.20;99.90;;;;;;5098375;28;20425;-64
2023/09/30 03:09:33;;;;;;;14.20;6.87;;;13.10;99.90;;;;;;5104448;28;20456;-63
2023/09/30 03:11:59;;;;;;;13.33;6.33;;;13.10;99.90;;;;;;5084702;28;21032;-64
2023/09/30 03:14:25;;;;;;;9.03;4.90;;;13.30;99.90;;;;;;5096561;28;20426;-64
2023/09/30 03:16:51;;;;;;;9.40;5.93;;;13.40;99.90;;;;;;5093344;28;20465;-64
2023/09/30 03:19:20;;;;;;;7.77;4.57;;;13.30;99.90;;;;;;5095843;28;20468;-64
2023/09/30 03:24:57;;;;;;;8.67;5.57;;;13.40;99.90;;;;;;5030424;28;20442;-64
2023/09/30 03:27:30;;;;;;;11.57;5.00;;;13.50;99.90;;;;;;5040835;28;20970;-64
2023/09/30 03:30:05;;;;;;;5.60;4.23;;;13.60;99.90;;;;;;5074110;28;20437;-64
2023/09/30 03:32:44;;;;;;;14.13;5.00;;;13.60;99.90;;;;;;5102849;28;21067;-64
2023/09/30 03:35:16;;;;;;;8.00;4.80;;;13.40;99.90;;;;;;5097220;28;20421;-64
2023/09/30 03:38:09;;;;;;;10.87;4.47;;;13.30;99.90;;;;;;5098079;28;20436;-64
2023/09/30 03:40:59;;;;;;;8.50;4.67;;;13.30;99.90;;;;;;5093968;28;20450;-64
2023/09/30 03:44:24;;;;;;;10.53;5.10;;;13.30;99.90;;;;;;5049477;28;20430;-64
2023/09/30 03:47:13;;;;;;;7.37;4.40;;;13.30;99.90;;;;;;5035837;28;20433;-64
2023/09/30 03:50:29;;;;;;;4.60;3.30;;;13.30;99.90;;;;;;4992855;28;20455;-64
2023/09/30 03:53:09;;;;;;;7.07;4.13;;;13.30;99.90;;;;;;4942417;28;20445;-64
2023/09/30 03:55:35;;;;;;;8.63;3.87;;;13.30;99.90;;;;;;5034037;28;20428;-65
2023/09/30 03:58:04;;;;;;;4.23;3.00;;;13.30;99.90;;;;;;5040559;28;21065;-63
2023/09/30 04:00:33;;;;;;;5.73;3.10;;;13.30;99.90;;;;;;5040826;28;20438;-64
2023/09/30 04:03:23;;;;;;;9.57;3.57;;;13.30;99.90;;;;;;5040228;28;20454;-64
2023/09/30 04:05:55;;;;;;;6.97;3.50;;;13.20;99.90;;;;;;5041087;28;20424;-64
2023/09/30 04:08:22;;;;;;;7.20;3.40;;;13.20;99.90;;;;;;5039796;28;20476;-64
2023/09/30 04:10:50;;;;;;;6.10;3.27;;;13.20;99.90;;;;;;5067260;28;20541;-64
2023/09/30 04:13:16;;;;;;;8.13;3.83;;;13.20;99.90;;;;;;5094535;28;20422;-63
2023/09/30 04:15:49;;;;;;;9.63;3.90;;;13.20;99.90;;;;;;5097689;28;20476;-64
2023/09/30 04:18:14;;;;;;;13.60;3.77;;;13.20;99.90;;;;;;5094786;28;20431;-64
2023/09/30 04:20:40;;;;;;;6.67;3.30;;;13.30;99.90;;;;;;5096865;28;20428;-64
2023/09/30 04:23:09;;;;;;;9.13;3.63;;;13.30;99.90;;;;;;5102679;28;20179;-65
2023/09/30 04:25:47;;;;;;;6.13;3.47;;;13.30;99.90;;;;;;5093971;28;20266;-64
2023/09/30 04:28:19;;;;;;;6.60;3.10;;;13.40;99.90;;;;;;5092451;28;20457;-64
2023/09/30 04:30:49;;;;;;;8.70;4.00;;;13.30;99.90;;;;;;5093015;28;20430;-64
2023/09/30 04:33:15;;;;;;;9.50;4.50;;;13.30;99.90;;;;;;5099478;28;20548;-64
2023/09/30 04:35:50;;;;;;;11.20;3.80;;;13.30;99.90;;;;;;5095186;28;20458;-64
2023/09/30 04:38:15;;;;;;;6.50;3.60;;;13.40;99.90;;;;;;5102685;28;20425;-64
2023/09/30 04:40:43;;;;;;;8.80;3.70;;;13.40;99.90;;;;;;5093052;28;20527;-64
2023/09/30 04:43:18;;;;;;;5.00;3.00;;;13.30;99.90;;;;;;5092971;28;20618;-64
2023/09/30 04:46:08;;;;;;;7.53;3.27;;;13.30;99.90;;;;;;5092988;28;20505;-64
2023/09/30 04:48:34;;;;;;;11.30;4.10;;;13.30;99.90;;;;;;5097799;28;20559;-64
2023/09/30 04:51:22;;;;;;;8.37;3.40;;;13.20;99.90;;;;;;5096955;28;20441;-64
2023/09/30 04:53:55;;;;;;;11.90;3.10;;;13.20;99.90;;;;;;5093005;28;20263;-64
2023/09/30 04:56:30;;;;;;;6.47;3.77;;;13.20;99.90;;;;;;5094221;28;21019;-64
2023/09/30 04:58:58;;;;;;;9.43;3.80;;;13.20;99.90;;;;;;5092347;28;20936;-65
2023/09/30 05:01:34;;;;;;;5.00;3.00;;;13.20;99.90;;;;;;5077542;28;20425;-64
2023/09/30 05:03:59;;;;;;;9.60;3.67;;;13.10;99.90;;;;;;5100845;28;20425;-64
2023/09/30 05:06:28;;;;;;;6.83;4.00;;;13.00;99.90;;;;;;5095899;28;20480;-64
2023/09/30 05:08:56;;;;;;;14.67;4.80;;;13.00;99.90;;;;;;5097355;28;20322;-64
2023/09/30 05:11:25;;;;;;;8.30;4.17;;;13.00;99.90;;;;;;5100425;28;20506;-64
2023/09/30 05:13:57;;;;;;;8.97;5.07;;;12.90;99.90;;;;;;5096442;28;20419;-64
2023/09/30 05:16:23;;;;;;;7.50;4.77;;;12.90;99.90;;;;;;5101883;28;20998;-65
2023/09/30 05:18:58;;;;;;;9.60;4.40;;;12.90;99.90;;;;;;5103015;28;20426;-65
2023/09/30 05:21:29;;;;;;;11.40;4.93;;;12.80;99.90;;;;;;5102855;28;20187;-64
2023/09/30 05:23:56;;;;;;;8.83;5.30;;;12.90;99.90;;;;;;5102270;28;20464;-65
2023/09/30 05:26:34;;;;;;;10.80;5.60;;;12.90;99.90;;;;;;5083438;28;20476;-65
2023/09/30 05:29:48;;;;;;;10.03;5.20;;;12.80;99.90;;;;;;5096199;28;20472;-64
2023/09/30 05:32:23;;;;;;;12.23;5.43;;;12.90;99.90;;;;;;5076990;28;20433;-65
2023/09/30 05:34:49;;;;;;;7.57;4.90;;;13.00;99.90;;;;;;5096899;28;20425;-64
2023/09/30 05:37:14;;;;;;;10.53;6.57;;;13.10;99.90;;;;;;5104954;28;20414;-64
2023/09/30 05:39:40;;;;;;;11.53;6.10;;;13.10;99.90;;;;;;5096489;28;20646;-64
2023/09/30 05:42:18;;;;;;;10.00;5.23;;;13.10;99.90;;;;;;5102692;28;20179;-64
2023/09/30 05:44:51;;;;;;;12.20;5.77;;;13.20;99.90;;;;;;5093882;28;20184;-64
2023/09/30 05:47:19;;;;;;;9.17;5.80;;;13.20;99.90;;;;;;5106251;28;20913;-64
2023/09/30 05:49:55;;;;;;;12.37;6.13;;;13.20;99.90;;;;;;5100782;28;20442;-64
2023/09/30 05:52:24;;;;;;;12.07;5.90;;;13.10;99.90;;;;;;5086575;28;20437;-64
2023/09/30 05:54:49;;;;;;;11.30;6.20;;;13.20;99.90;;;;;;5101095;28;20530;-64
2023/09/30 05:57:23;;;;;;;11.63;6.20;;;13.20;99.90;;;;;;5097421;28;20430;-64
2023/09/30 05:59:49;;;;;;;10.87;6.23;;;13.30;99.90;;;;;;5106381;28;20453;-64
2023/09/30 06:02:15;;;;;;;11.20;5.57;;;13.30;99.90;;;;;;5105926;28;20425;-64
2023/09/30 06:04:47;;;;;;;11.03;5.90;;;13.30;99.90;;;;;;5093025;28;21137;-64
2023/09/30 06:07:41;;;;;;;11.40;6.03;;;13.40;99.90;;;;;;5098860;28;20215;-64
2023/09/30 06:10:27;;;;;;;15.10;6.90;;;13.40;99.90;;;;;;5064363;28;20438;-64
2023/09/30 06:13:02;;;;;;;12.17;5.80;;;13.50;99.90;;;;;;5098699;28;20947;-64
2023/09/30 06:15:52;;;;;;;13.17;5.70;;;13.60;99.90;;;;;;5087782;28;20511;-64
2023/09/30 06:18:30;;;;;;;13.37;5.77;;;13.50;99.90;;;;;;5099016;28;20512;-64
2023/09/30 06:21:03;;;;;;;9.97;6.00;;;13.50;99.90;;;;;;5098146;28;20421;-64
2023/09/30 06:24:02;;;;;;;11.20;6.10;;;13.50;99.90;;;;;;5104610;28;20433;-64
2023/09/30 06:26:30;;;;;;;11.60;6.43;;;13.60;99.90;;;;;;5096848;28;20429;-64
2023/09/30 06:28:56;;;;;;;13.97;7.00;;;13.60;99.90;;;;;;5098675;28;20559;-64
2023/09/30 06:31:28;;;;;;;14.33;6.40;;;13.60;99.90;;;;;;5098506;28;20517;-64
2023/09/30 06:34:20;;;;;;;10.20;5.53;;;13.70;99.90;;;;;;5105516;28;20916;-64
2023/09/30 06:37:19;;;;;;;13.07;6.50;;;13.70;99.90;;;;;;5093788;28;20437;-64
2023/09/30 06:39:48;;;;;;;10.97;6.00;;;13.80;99.90;;;;;;5101233;28;20423;-64
2023/09/30 06:42:16;;;;;;;14.00;7.30;;;13.80;99.90;;;;;;5095665;28;20786;-64
2023/09/30 06:44:49;;;;;;;11.53;6.77;;;13.90;99.90;;;;;;5092291;28;20492;-64
2023/09/30 06:47:51;;;;;;;9.80;6.60;;;13.90;99.90;;;;;;5079839;28;20835;-64
2023/09/30 06:50:17;;;;;;;12.10;6.47;;;13.90;99.90;;;;;;5103338;28;20437;-64
2023/09/30 06:52:53;;;;;;;10.53;6.50;;;14.00;99.90;;;;;;5094905;28;20916;-65
2023/09/30 06:55:18;;;;;;;10.33;6.87;;;14.00;99.90;;;;;;5096888;28;20430;-64
2023/09/30 06:57:44;;;;;;;11.60;6.30;;;14.10;99.90;;;;;;5098641;28;20425;-64
2023/09/30 07:00:11;;;;;;;12.27;7.17;;;14.10;99.90;;;;;;5098217;28;20179;-64
2023/09/30 07:02:44;;;;;;;11.60;6.00;;;14.20;99.90;;;;;;5100861;28;20198;-64
2023/09/30 07:05:12;;;;;;;11.53;7.77;;;14.30;99.90;;;;;;5095111;28;20419;-64
2023/09/30 07:08:03;;;;;;;12.47;7.23;;;14.40;99.90;;;;;;5093563;28;20820;-64
2023/09/30 07:10:29;;;;;;;13.67;7.07;;;14.50;99.90;;;;;;5097805;28;20513;-64
2023/09/30 07:13:06;;;;;;;11.63;6.90;;;14.60;99.90;;;;;;5104581;28;20865;-64
2023/09/30 07:16:01;;;;;;;12.10;7.53;;;14.70;99.90;;;;;;5101900;28;20483;-64
2023/09/30 07:18:36;;;;;;;13.47;7.03;;;14.80;99.90;;;;;;5095299;28;20436;-64
2023/09/30 07:21:01;;;;;;;14.90;7.80;;;14.90;99.90;;;;;;5097865;28;20978;-64
2023/09/30 07:23:33;;;;;;;10.77;7.70;;;15.00;99.90;;;;;;5102632;28;20418;-64
2023/09/30 07:26:01;;;;;;;12.73;7.60;;;15.10;99.90;;;;;;5099674;28;20216;-64
2023/09/30 07:28:40;;;;;;;11.97;7.30;;;15.30;99.90;;;;;;5099661;28;21033;-64
2023/09/30 07:31:22;;;;;;;12.43;7.40;;;15.50;99.90;;;;;;5095791;28;20437;-64
2023/09/30 07:34:16;;;;;;;10.73;6.80;;;15.70;99.90;;;;;;5093383;28;20419;-64
2023/09/30 07:36:51;;;;;;;10.70;6.57;;;15.90;99.90;;;;;;5090765;28;20919;-64
2023/09/30 07:42:18;;;;;;;10.20;6.80;;;16.20;99.90;;;;;;5060154;28;20761;-64
2023/09/30 07:44:49;;;;;;;9.93;6.67;;;16.40;99.90;;;;;;5097948;28;20490;-64
2023/09/30 07:47:33;;;;;;;11.13;6.57;;;16.50;99.90;;;;;;5103891;28;20469;-64
2023/09/30 07:51:13;;;;;;;13.77;6.53;;;16.70;99.90;;;;;;5092348;28;20441;-64
2023/09/30 07:53:50;;;;;;;13.67;7.27;;;16.90;99.90;;;;;;4994850;28;20445;-65
2023/09/30 07:56:19;;;;;;;16.17;7.10;;;17.00;99.90;;;;;;5043866;28;20500;-64
2023/09/30 07:58:45;;;;;;;10.57;6.50;;;17.10;99.90;;;;;;5103057;28;20509;-64
2023/09/30 08:01:17;;;;;;;12.63;7.00;;;17.20;99.90;;;;;;5096975;28;21094;-63
2023/09/30 08:03:49;;;;;;;9.87;5.70;;;17.20;99.90;;;;;;5093548;28;20845;-64
2023/09/30 08:06:27;;;;;;;11.57;5.97;;;17.30;99.90;;;;;;5094821;28;20437;-65
2023/09/30 08:09:11;;;;;;;9.83;6.47;;;17.40;99.90;;;;;;5096541;28;20558;-64
2023/09/30 08:11:56;;;;;;;12.73;6.87;;;17.50;99.90;;;;;;5092807;28;20423;-64
2023/09/30 08:14:22;;;;;;;10.00;6.30;;;17.50;99.90;;;;;;5095761;28;20423;-64
2023/09/30 08:17:45;;;;;;;10.43;5.73;;;17.60;99.90;;;;;;5103473;28;20895;-64
2023/09/30 08:20:14;;;;;;;10.63;5.53;;;17.60;99.90;;;;;;5077914;28;20441;-64
2023/09/30 08:22:43;;;;;;;7.53;5.17;;;17.50;99.90;;;;;;5092859;28;20418;-64
2023/09/30 08:25:32;;;;;;;11.13;5.70;;;17.40;99.90;;;;;;5100071;28;20437;-64
2023/09/30 08:27:58;;;;;;;11.03;5.80;;;17.50;99.90;;;;;;4999517;28;20528;-64
2023/09/30 08:33:47;;;;;;;11.40;6.33;;;17.50;99.90;;;;;;4980902;28;20439;-64
2023/09/30 08:36:28;;;;;;;11.53;6.47;;;17.60;99.90;;;;;;4984839;28;21209;-64
2023/09/30 08:45:22;;;;;;;8.63;4.77;;;17.90;99.90;;;;;;4942194;29;20440;-64
2023/09/30 08:48:00;;;;;;;11.47;4.90;;;17.80;99.90;;;;;;4941507;29;20483;-64
2023/09/30 08:50:29;;;;;;;6.20;4.07;;;17.80;99.90;;;;;;4940607;29;20465;-64
2023/09/30 08:52:58;;;;;;;7.47;3.80;;;17.90;99.90;;;;;;5016238;28;20434;-64
2023/09/30 08:55:46;;;;;;;9.53;3.83;;;18.00;99.90;;;;;;5086352;28;20438;-64
2023/09/30 08:58:32;;;;;;;7.13;4.30;;;18.10;99.90;;;;;;5086229;28;20476;-64
2023/09/30 09:01:01;;;;;;;7.27;4.90;;;18.20;99.90;;;;;;5084936;28;20426;-64
2023/09/30 09:03:42;;;;;;;8.63;4.40;;;18.20;99.90;;;;;;5086682;28;20498;-64
2023/09/30 09:06:10;;;;;;;6.90;4.17;;;18.20;99.90;;;;;;5084994;28;20445;-64
2023/09/30 09:16:19;;;;;;;7.43;4.03;;;18.70;99.90;;;;;;5014428;28;20437;-64
2023/09/30 09:18:56;;;;;;;6.00;4.00;;;18.90;99.90;;;;;;5013000;28;20476;-63
2023/09/30 09:22:24;;;;;;;9.90;5.17;;;19.00;99.90;;;;;;5019542;28;20451;-64
2023/09/30 09:25:09;;;;;;;11.33;5.13;;;19.10;99.90;;;;;;4960177;28;20454;-64
2023/09/30 09:30:38;;;;;;;9.97;4.30;;;19.50;99.90;;;;;;4993687;28;20441;-64
2023/09/30 09:33:38;;;;;;;7.10;3.87;;;19.70;99.90;;;;;;5019097;28;21174;-63
2023/09/30 09:36:17;;;;;;;6.27;3.70;;;19.80;99.90;;;;;;5003035;28;20603;-64
2023/09/30 09:39:04;;;;;;;6.93;3.80;;;19.60;99.90;;;;;;5019101;28;21087;-63
2023/09/30 09:42:01;;;;;;;4.97;3.93;;;19.40;99.90;;;;;;5041713;28;20431;-64
2023/09/30 09:44:36;;;;;;;6.93;4.67;;;19.30;99.90;;;;;;5094566;28;20461;-64
2023/09/30 09:47:06;;;;;;;10.30;4.73;;;19.10;99.90;;;;;;5095310;28;20423;-64
2023/09/30 09:49:32;;;;;;;9.20;4.63;;;19.20;99.90;;;;;;5099991;28;20453;-64
2023/09/30 09:52:11;;;;;;;11.67;4.90;;;19.20;99.90;;;;;;5091263;28;20527;-64
2023/09/30 09:54:45;;;;;;;6.87;4.10;;;19.50;99.90;;;;;;5086291;28;21065;-64
2023/09/30 09:57:15;;;;;;;4.40;3.73;;;19.70;99.90;;;;;;5095170;28;20499;-64
2023/09/30 09:59:52;;;;;;;7.23;3.67;;;19.90;99.90;;;;;;5090138;28;21105;-64
2023/09/30 10:05:14;;;;;;;6.40;3.47;;;20.10;99.90;;;;;;5098922;28;21414;-64
2023/09/30 10:08:25;;;;;;;5.90;4.30;;;20.30;99.90;;;;;;5098993;28;20543;-64
2023/09/30 10:11:28;;;;;;;6.03;4.73;;;20.30;99.90;;;;;;5080373;28;21201;-65
2023/09/30 10:14:37;;;;;;;7.43;4.53;;;20.40;99.90;;;;;;5091325;28;20430;-64
2023/09/30 10:17:50;;;;;;;9.40;4.20;;;20.30;99.90;;;;;;5091058;28;20429;-64
2023/09/30 10:20:27;;;;;;;7.10;4.27;;;20.50;99.90;;;;;;4945093;28;20470;-63
2023/09/30 10:23:18;;;;;;;5.73;3.60;;;20.60;99.90;;;;;;5030200;28;20998;-64
2023/09/30 10:25:57;;;;;;;5.50;4.10;;;20.70;99.90;;;;;;5022218;28;20448;-64
2023/09/30 10:28:54;;;;;;;8.57;4.03;;;20.70;99.90;;;;;;5024752;28;20516;-64
2023/09/30 10:31:25;;;;;;;8.10;4.40;;;20.60;99.90;;;;;;5041736;28;20452;-64
2023/09/30 10:34:06;;;;;;;6.10;4.00;;;20.60;99.90;;;;;;5005814;28;21306;-64
2023/09/30 10:36:44;;;;;;;6.60;3.97;;;20.50;99.90;;;;;;5042578;28;20571;-64
2023/09/30 10:39:47;;;;;;;6.80;4.10;;;20.60;99.90;;;;;;5098079;28;20433;-64
2023/09/30 10:42:59;;;;;;;6.60;3.70;;;20.60;99.90;;;;;;5096315;28;20757;-64
2023/09/30 10:46:08;;;;;;;6.47;3.83;;;20.60;99.90;;;;;;5097639;28;20429;-64
2023/09/30 10:48:35;;;;;;;5.77;4.10;;;20.60;99.90;;;;;;5002056;28;20520;-64
2023/09/30 10:51:44;;;;;;;7.83;3.87;;;20.30;99.90;;;;;;5002044;28;20485;-64
2023/09/30 10:54:41;;;;;;;6.33;3.10;;;20.10;99.90;;;;;;5002757;28;20442;-64
2023/09/30 10:57:35;;;;;;;5.47;3.40;;;20.10;99.90;;;;;;5002665;28;20462;-64
2023/09/30 11:01:00;;;;;;;5.60;2.93;;;20.10;99.90;;;;;;5028194;28;21035;-64
2023/09/30 11:03:26;;;;;;;3.73;2.70;;;20.10;99.90;;;;;;5075893;28;20434;-64
2023/09/30 11:05:58;;;;;;;7.17;2.90;;;20.10;99.90;;;;;;5093888;28;20465;-64
2023/09/30 11:08:54;;;;;;;4.17;2.80;;;20.10;99.90;;;;;;5096885;28;20466;-64
2023/09/30 11:11:34;;;;;;;4.03;3.03;;;20.20;99.90;;;;;;5094839;28;20425;-64
2023/09/30 11:14:05;;;;;;;5.80;2.87;;;20.20;99.90;;;;;;5093252;28;20421;-64
2023/09/30 11:16:50;;;;;;;5.13;2.83;;;20.30;99.90;;;;;;5104878;28;20517;-64
2023/09/30 11:19:22;;;;;;;4.37;2.50;;;20.40;99.90;;;;;;5091143;28;20434;-63
2023/09/30 11:22:22;;;;;;;4.80;2.67;;;20.40;99.90;;;;;;5093877;28;20426;-64
2023/09/30 11:24:51;;;;;;;6.17;3.17;;;20.40;99.90;;;;;;4995584;28;20434;-64
2023/09/30 11:27:41;;;;;;;5.50;2.63;;;20.40;99.90;;;;;;5001696;28;20441;-64
2023/09/30 11:30:20;;;;;;;3.30;2.83;;;20.40;99.90;;;;;;5095605;28;20425;-63
2023/09/30 11:36:23;;;;;;;5.90;3.20;;;20.70;99.90;;;;;;4998511;28;20441;-64
2023/09/30 11:38:52;;;;;;;5.67;3.50;;;20.70;99.90;;;;;;5092823;28;20430;-64
2023/09/30 11:41:18;;;;;;;4.03;2.83;;;20.70;99.90;;;;;;5102172;28;20421;-64
2023/09/30 11:44:12;;;;;;;5.13;2.80;;;20.70;99.90;;;;;;5097325;28;20436;-64
2023/09/30 11:46:48;;;;;;;5.63;2.80;;;20.70;99.90;;;;;;5092719;28;20431;-64
2023/09/30 11:49:49;;;;;;;6.07;3.47;;;20.70;99.90;;;;;;5094258;28;20473;-64
2023/09/30 11:52:36;;;;;;;5.00;2.77;;;20.80;99.90;;;;;;5094768;28;20442;-63
2023/09/30 11:55:08;;;;;;;3.80;2.90;;;20.90;99.90;;;;;;5067890;28;20426;-64
2023/09/30 11:57:34;;;;;;;6.23;3.50;;;21.00;99.90;;;;;;5095846;28;20471;-64
2023/09/30 12:00:35;;;;;;;3.57;2.70;;;21.10;99.90;;;;;;5089936;28;20422;-64
2023/09/30 12:03:39;;;;;;;4.33;2.90;;;21.00;99.90;;;;;;5085278;28;20438;-64
2023/09/30 12:06:34;;;;;;;6.07;2.90;;;21.10;99.90;;;;;;5013902;28;21042;-64
2023/09/30 12:09:39;;;;;;;3.40;2.90;;;21.10;99.90;;;;;;5053325;28;20541;-64
2023/09/30 12:12:09;;;;;;;4.80;2.70;;;21.10;99.90;;;;;;5021240;28;20475;-64
2023/09/30 12:14:35;;;;;;;3.23;2.70;;;21.10;99.90;;;;;;5003497;28;20445;-64
2023/09/30 12:17:03;;;;;;;6.63;3.30;;;20.90;99.90;;;;;;5020944;28;20513;-64
2023/09/30 12:20:11;;;;;;;5.70;2.67;;;20.90;99.90;;;;;;5020588;28;20202;-64
2023/09/30 12:22:37;;;;;;;5.47;2.60;;;20.90;98.60;;;;;;5020095;28;20425;-64
2023/09/30 12:25:03;;;;;;;4.40;2.70;;;20.70;99.80;;;;;;5035893;28;20474;-64
2023/09/30 12:27:28;;;;;;;5.90;3.10;;;20.80;99.90;;;;;;5086065;28;20977;-64
2023/09/30 12:29:55;;;;;;;3.50;2.70;;;20.90;99.90;;;;;;5093904;28;20430;-64
2023/09/30 12:32:20;;;;;;;5.17;3.03;;;20.90;99.90;;;;;;5093778;28;20187;-64
2023/09/30 12:34:49;;;;;;;4.87;3.00;;;20.90;99.90;;;;;;5089538;28;20429;-64
2023/09/30 12:37:23;;;;;;;7.53;4.10;;;21.00;99.90;;;;;;5096589;28;20186;-64
2023/09/30 12:40:24;;;;;;;3.70;2.70;;;21.00;99.90;;;;;;5084100;28;20480;-64
2023/09/30 12:43:11;;;;;;;3.23;2.43;;;20.90;99.90;;;;;;4994489;28;21155;-64
2023/09/30 12:48:26;;;;;;;5.00;2.97;;;20.70;99.80;;;;;;4942056;29;21011;-64
2023/09/30 12:50:57;;;;;;;4.23;2.50;;;20.70;99.90;;;;;;4941457;29;20584;-64
2023/09/30 12:53:23;;;;;;;4.73;3.57;;;20.70;99.90;;;;;;4975219;28;20195;-64
2023/09/30 12:55:49;;;;;;;4.47;2.80;;;20.70;99.90;;;;;;5000500;28;20442;-64
2023/09/30 12:58:15;;;;;;;6.77;3.37;;;20.70;99.90;;;;;;5000764;28;20229;-64
2023/09/30 13:00:43;;;;;;;5.30;3.60;;;20.80;99.90;;;;;;4999849;28;20612;-64
2023/09/30 13:03:18;;;;;;;4.63;3.00;;;20.90;99.90;;;;;;5000477;28;20968;-64
2023/09/30 13:05:44;;;;;;;6.20;3.00;;;20.80;99.90;;;;;;5014612;28;20430;-64
2023/09/30 13:08:50;;;;;;;3.10;2.50;;;20.80;99.90;;;;;;5080721;28;20980;-64
2023/09/30 13:11:50;;;;;;;4.40;2.93;;;20.70;99.90;;;;;;5031921;28;20192;-63
2023/09/30 13:14:28;;;;;;;4.93;3.57;;;20.50;99.90;;;;;;5072249;28;20422;-65
2023/09/30 13:16:57;;;;;;;3.97;3.63;;;20.40;99.90;;;;;;5064116;28;20431;-64
2023/09/30 13:19:22;;;;;;;4.27;3.00;;;20.40;99.90;;;;;;5079680;28;20455;-64
2023/09/30 13:22:17;;;;;;;4.40;3.20;;;20.40;99.90;;;;;;5080144;28;20518;-64
2023/09/30 13:24:54;;;;;;;5.40;3.40;;;20.40;99.90;;;;;;5064163;28;20843;-64
2023/09/30 13:27:26;;;;;;;5.57;4.03;;;20.40;99.90;;;;;;5078518;28;20458;-64
2023/09/30 13:29:54;;;;;;;5.77;4.83;;;20.30;99.90;;;;;;5076836;28;20426;-64
2023/09/30 13:32:34;;;;;;;6.00;4.67;;;20.20;99.90;;;;;;5080437;28;21279;-64
2023/09/30 13:35:00;;;;;;;4.97;3.90;;;20.10;99.90;;;;;;5076554;28;20470;-64
2023/09/30 13:37:33;;;;;;;5.37;3.77;;;20.10;99.90;;;;;;5073530;28;20516;-64
2023/09/30 13:40:08;;;;;;;5.10;4.00;;;20.10;99.90;;;;;;5082038;28;20191;-64
2023/09/30 13:42:46;;;;;;;6.40;4.60;;;20.30;99.90;;;;;;5080666;28;20446;-64
2023/09/30 13:45:19;;;;;;;4.80;4.03;;;20.40;99.90;;;;;;5080887;28;20997;-64
2023/09/30 13:48:30;;;;;;;6.47;4.17;;;20.30;99.90;;;;;;5066748;28;20952;-64
2023/09/30 13:51:31;;;;;;;6.07;4.40;;;20.30;99.90;;;;;;5050061;28;20475;-64
2023/09/30 13:54:08;;;;;;;6.60;4.50;;;20.20;99.90;;;;;;4994932;28;21584;-64
2023/09/30 13:57:00;;;;;;;5.90;4.30;;;20.20;99.90;;;;;;4999466;28;20955;-64
2023/09/30 14:02:52;;;;;;;5.43;3.93;;;20.10;99.90;;;;;;5007094;28;20457;-64
2023/09/30 14:05:20;;;;;;;6.10;3.90;;;20.10;99.90;;;;;;5084187;28;20493;-64
2023/09/30 14:07:52;;;;;;;5.23;3.53;;;20.10;99.90;;;;;;5083564;28;20264;-64
2023/09/30 14:10:24;;;;;;;6.87;4.00;;;20.10;99.90;;;;;;5082993;28;20856;-64
2023/09/30 14:12:49;;;;;;;4.87;3.27;;;20.10;99.90;;;;;;5083909;28;20430;-64
2023/09/30 14:15:53;;;;;;;4.40;3.10;;;20.10;99.90;;;;;;5083025;28;20426;-63
2023/09/30 14:18:19;;;;;;;5.30;3.80;;;20.10;99.90;;;;;;5081184;28;20198;-64
2023/09/30 14:20:57;;;;;;;5.10;3.33;;;20.10;99.90;;;;;;5069832;28;20430;-64